sensor_id;sensor_type;location;lat;lon;timestamp;P1;durP1;ratioP1;P2;durP2;ratioP2
59474;SDS011;45288;51.136;16.928;2023-06-22T00:01:58;1068.93;;;983.08;;
59474;SDS011;45288;51.136;16.928;2023-06-22T00:04:24;1045.10;;;960.77;;
59474;SDS011;45288;51.136;16.928;2023-06-22T00:06:49;1050.03;;;965.50;;
59474;SDS011;45288;51.136;16.928;2023-06-22T00:09:15;1093.83;;;999.90;;
59474;SDS011;45288;51.136;16.928;2023-06-22T00:11:41;1041.17;;;956.93;;
59474;SDS011;45288;51.136;16.928;2023-06-22T00:14:06;1074.53;;;988.35;;
59474;SDS011;45288;51.136;16.928;2023-06-22T00:16:32;1040.50;;;956.25;;
59474;SDS011;45288;51.136;16.928;2023-06-22T00:18:58;1041.80;;;958.00;;
59474;SDS011;45288;51.136;16.928;2023-06-22T00:21:26;1063.57;;;978.33;;
59474;SDS011;45288;51.136;16.928;2023-06-22T00:23:52;1066.50;;;980.83;;
59474;SDS011;45288;51.136;16.928;2023-06-22T00:26:17;1056.97;;;972.35;;
59474;SDS011;45288;51.136;16.928;2023-06-22T00:28:43;1057.73;;;973.07;;
59474;SDS011;45288;51.136;16.928;2023-06-22T00:31:09;1064.03;;;979.33;;
59474;SDS011;45288;51.136;16.928;2023-06-22T00:33:34;1064.97;;;979.63;;
59474;SDS011;45288;51.136;16.928;2023-06-22T00:36:04;1094.00;;;999.90;;
59474;SDS011;45288;51.136;16.928;2023-06-22T00:38:31;1110.30;;;999.90;;
59474;SDS011;45288;51.136;16.928;2023-06-22T00:40:57;1122.88;;;999.90;;
59474;SDS011;45288;51.136;16.928;2023-06-22T00:43:23;1131.63;;;999.90;;
59474;SDS011;45288;51.136;16.928;2023-06-22T00:45:48;1120.83;;;999.90;;
59474;SDS011;45288;51.136;16.928;2023-06-22T00:48:16;1080.55;;;994.25;;
59474;SDS011;45288;51.136;16.928;2023-06-22T00:50:42;1141.30;;;999.90;;
59474;SDS011;45288;51.136;16.928;2023-06-22T00:53:08;1153.25;;;999.90;;
59474;SDS011;45288;51.136;16.928;2023-06-22T00:55:38;1165.93;;;999.90;;
59474;SDS011;45288;51.136;16.928;2023-06-22T00:58:04;1159.18;;;999.90;;
59474;SDS011;45288;51.136;16.928;2023-06-22T01:00:33;1161.28;;;999.90;;
59474;SDS011;45288;51.136;16.928;2023-06-22T01:02:59;1219.18;;;999.90;;
59474;SDS011;45288;51.136;16.928;2023-06-22T01:05:25;1221.10;;;999.90;;
59474;SDS011;45288;51.136;16.928;2023-06-22T01:13:25;1308.35;;;999.90;;
59474;SDS011;45288;51.136;16.928;2023-06-22T01:15:55;1305.93;;;999.90;;
59474;SDS011;45288;51.136;16.928;2023-06-22T01:18:22;1304.37;;;999.90;;
59474;SDS011;45288;51.136;16.928;2023-06-22T01:20:52;1218.70;;;999.90;;
59474;SDS011;45288;51.136;16.928;2023-06-22T01:26:02;1176.32;;;999.90;;
59474;SDS011;45288;51.136;16.928;2023-06-22T01:28:49;1190.28;;;999.90;;
59474;SDS011;45288;51.136;16.928;2023-06-22T01:31:16;1194.38;;;999.90;;
59474;SDS011;45288;51.136;16.928;2023-06-22T01:33:43;1205.13;;;999.90;;
59474;SDS011;45288;51.136;16.928;2023-06-22T01:36:12;1182.70;;;999.90;;
59474;SDS011;45288;51.136;16.928;2023-06-22T01:38:39;1194.72;;;999.90;;
59474;SDS011;45288;51.136;16.928;2023-06-22T01:41:05;1185.87;;;999.90;;
59474;SDS011;45288;51.136;16.928;2023-06-22T01:43:31;1189.07;;;999.90;;
59474;SDS011;45288;51.136;16.928;2023-06-22T01:45:59;1183.95;;;999.90;;
59474;SDS011;45288;51.136;16.928;2023-06-22T01:48:25;1188.75;;;999.90;;
59474;SDS011;45288;51.136;16.928;2023-06-22T01:50:51;1188.47;;;999.90;;
59474;SDS011;45288;51.136;16.928;2023-06-22T01:53:17;1190.70;;;999.90;;
59474;SDS011;45288;51.136;16.928;2023-06-22T01:55:44;1218.78;;;999.90;;
59474;SDS011;45288;51.136;16.928;2023-06-22T01:58:10;1219.50;;;999.90;;
59474;SDS011;45288;51.136;16.928;2023-06-22T02:00:37;1222.00;;;999.90;;
59474;SDS011;45288;51.136;16.928;2023-06-22T02:03:11;1226.82;;;999.90;;
59474;SDS011;45288;51.136;16.928;2023-06-22T02:05:39;1215.68;;;999.90;;
59474;SDS011;45288;51.136;16.928;2023-06-22T02:08:10;1225.20;;;999.90;;
59474;SDS011;45288;51.136;16.928;2023-06-22T02:10:37;1192.93;;;999.90;;
59474;SDS011;45288;51.136;16.928;2023-06-22T02:13:04;1186.40;;;999.90;;
59474;SDS011;45288;51.136;16.928;2023-06-22T02:15:32;1190.25;;;999.90;;
59474;SDS011;45288;51.136;16.928;2023-06-22T02:17:58;1160.03;;;999.90;;
59474;SDS011;45288;51.136;16.928;2023-06-22T02:20:24;1192.47;;;999.90;;
59474;SDS011;45288;51.136;16.928;2023-06-22T02:22:50;1199.53;;;999.90;;
59474;SDS011;45288;51.136;16.928;2023-06-22T02:25:16;1196.82;;;999.90;;
59474;SDS011;45288;51.136;16.928;2023-06-22T02:27:43;1211.70;;;999.90;;
59474;SDS011;45288;51.136;16.928;2023-06-22T02:30:10;1206.50;;;999.90;;
59474;SDS011;45288;51.136;16.928;2023-06-22T02:32:38;1217.68;;;999.90;;
59474;SDS011;45288;51.136;16.928;2023-06-22T02:35:07;1205.75;;;999.90;;
59474;SDS011;45288;51.136;16.928;2023-06-22T02:37:35;1209.65;;;999.90;;
59474;SDS011;45288;51.136;16.928;2023-06-22T02:40:01;1214.18;;;999.90;;
59474;SDS011;45288;51.136;16.928;2023-06-22T02:42:28;1212.88;;;999.90;;
59474;SDS011;45288;51.136;16.928;2023-06-22T02:44:54;1210.80;;;999.90;;
59474;SDS011;45288;51.136;16.928;2023-06-22T02:47:19;1178.33;;;999.90;;
59474;SDS011;45288;51.136;16.928;2023-06-22T02:49:45;1196.88;;;999.90;;
59474;SDS011;45288;51.136;16.928;2023-06-22T02:52:13;1200.13;;;999.90;;
59474;SDS011;45288;51.136;16.928;2023-06-22T02:54:38;1210.80;;;999.90;;
59474;SDS011;45288;51.136;16.928;2023-06-22T02:57:05;1204.83;;;999.90;;
59474;SDS011;45288;51.136;16.928;2023-06-22T02:59:31;1215.90;;;999.90;;
59474;SDS011;45288;51.136;16.928;2023-06-22T03:02:03;1199.25;;;999.90;;
59474;SDS011;45288;51.136;16.928;2023-06-22T03:04:31;1161.90;;;999.90;;
59474;SDS011;45288;51.136;16.928;2023-06-22T03:06:57;1159.47;;;999.90;;
59474;SDS011;45288;51.136;16.928;2023-06-22T03:09:28;1164.90;;;999.90;;
59474;SDS011;45288;51.136;16.928;2023-06-22T03:11:55;1116.38;;;999.90;;
59474;SDS011;45288;51.136;16.928;2023-06-22T03:14:24;1177.25;;;999.90;;
59474;SDS011;45288;51.136;16.928;2023-06-22T03:16:51;1168.05;;;999.90;;
59474;SDS011;45288;51.136;16.928;2023-06-22T03:19:18;1171.95;;;999.90;;
59474;SDS011;45288;51.136;16.928;2023-06-22T03:21:45;1181.83;;;999.90;;
59474;SDS011;45288;51.136;16.928;2023-06-22T03:24:10;1177.07;;;999.90;;
59474;SDS011;45288;51.136;16.928;2023-06-22T03:26:37;1175.40;;;999.90;;
59474;SDS011;45288;51.136;16.928;2023-06-22T03:29:03;1166.68;;;999.90;;
59474;SDS011;45288;51.136;16.928;2023-06-22T03:31:30;1180.00;;;999.90;;
59474;SDS011;45288;51.136;16.928;2023-06-22T03:33:56;1177.60;;;999.90;;
59474;SDS011;45288;51.136;16.928;2023-06-22T03:36:23;1180.37;;;999.90;;
59474;SDS011;45288;51.136;16.928;2023-06-22T03:38:49;1182.40;;;999.90;;
59474;SDS011;45288;51.136;16.928;2023-06-22T03:41:15;1183.90;;;999.90;;
59474;SDS011;45288;51.136;16.928;2023-06-22T03:43:41;1171.07;;;999.90;;
59474;SDS011;45288;51.136;16.928;2023-06-22T03:46:07;1165.63;;;999.90;;
59474;SDS011;45288;51.136;16.928;2023-06-22T03:48:33;1176.97;;;999.90;;
59474;SDS011;45288;51.136;16.928;2023-06-22T03:50:59;1183.07;;;999.90;;
59474;SDS011;45288;51.136;16.928;2023-06-22T03:53:25;1182.80;;;999.90;;
59474;SDS011;45288;51.136;16.928;2023-06-22T03:55:51;1182.60;;;999.90;;
59474;SDS011;45288;51.136;16.928;2023-06-22T03:58:17;1197.15;;;999.90;;
59474;SDS011;45288;51.136;16.928;2023-06-22T04:00:50;1210.25;;;999.90;;
59474;SDS011;45288;51.136;16.928;2023-06-22T04:03:16;1218.22;;;999.90;;
59474;SDS011;45288;51.136;16.928;2023-06-22T04:05:44;1219.50;;;999.90;;
59474;SDS011;45288;51.136;16.928;2023-06-22T04:08:09;1225.03;;;999.90;;
59474;SDS011;45288;51.136;16.928;2023-06-22T04:10:35;1233.10;;;999.90;;
59474;SDS011;45288;51.136;16.928;2023-06-22T04:13:01;1236.80;;;999.90;;
59474;SDS011;45288;51.136;16.928;2023-06-22T04:15:27;1241.70;;;999.90;;
59474;SDS011;45288;51.136;16.928;2023-06-22T04:17:54;1235.83;;;999.90;;
59474;SDS011;45288;51.136;16.928;2023-06-22T04:20:19;1192.65;;;999.90;;
59474;SDS011;45288;51.136;16.928;2023-06-22T04:22:45;1199.70;;;999.90;;
59474;SDS011;45288;51.136;16.928;2023-06-22T04:25:11;1209.47;;;999.90;;
59474;SDS011;45288;51.136;16.928;2023-06-22T04:27:37;1213.60;;;999.90;;
59474;SDS011;45288;51.136;16.928;2023-06-22T04:30:06;1207.82;;;999.90;;
59474;SDS011;45288;51.136;16.928;2023-06-22T04:32:32;1209.03;;;999.90;;
59474;SDS011;45288;51.136;16.928;2023-06-22T04:34:58;1193.50;;;999.90;;
59474;SDS011;45288;51.136;16.928;2023-06-22T04:37:25;1135.80;;;999.90;;
59474;SDS011;45288;51.136;16.928;2023-06-22T04:39:54;1138.80;;;999.90;;
59474;SDS011;45288;51.136;16.928;2023-06-22T04:42:19;1144.47;;;999.90;;
59474;SDS011;45288;51.136;16.928;2023-06-22T04:44:45;1162.47;;;999.90;;
59474;SDS011;45288;51.136;16.928;2023-06-22T04:47:11;1178.65;;;999.90;;
59474;SDS011;45288;51.136;16.928;2023-06-22T04:49:36;1234.35;;;999.90;;
59474;SDS011;45288;51.136;16.928;2023-06-22T04:52:03;1228.25;;;999.90;;
59474;SDS011;45288;51.136;16.928;2023-06-22T04:54:29;1238.68;;;999.90;;
59474;SDS011;45288;51.136;16.928;2023-06-22T04:57:02;1243.80;;;999.90;;
59474;SDS011;45288;51.136;16.928;2023-06-22T04:59:28;1240.35;;;999.90;;
59474;SDS011;45288;51.136;16.928;2023-06-22T05:01:55;1221.28;;;999.90;;
59474;SDS011;45288;51.136;16.928;2023-06-22T05:04:22;1176.43;;;999.90;;
59474;SDS011;45288;51.136;16.928;2023-06-22T05:06:51;1160.53;;;999.90;;
59474;SDS011;45288;51.136;16.928;2023-06-22T05:09:17;1156.97;;;999.90;;
59474;SDS011;45288;51.136;16.928;2023-06-22T05:11:43;1163.88;;;999.90;;
59474;SDS011;45288;51.136;16.928;2023-06-22T05:14:09;1150.78;;;999.90;;
59474;SDS011;45288;51.136;16.928;2023-06-22T05:16:35;1135.63;;;999.90;;
59474;SDS011;45288;51.136;16.928;2023-06-22T05:19:01;1151.35;;;999.90;;
59474;SDS011;45288;51.136;16.928;2023-06-22T05:21:29;1229.78;;;999.90;;
59474;SDS011;45288;51.136;16.928;2023-06-22T05:23:55;1217.23;;;999.90;;
59474;SDS011;45288;51.136;16.928;2023-06-22T05:26:25;1301.28;;;999.90;;
59474;SDS011;45288;51.136;16.928;2023-06-22T05:28:51;1300.97;;;999.90;;
59474;SDS011;45288;51.136;16.928;2023-06-22T05:31:17;1304.73;;;999.90;;
59474;SDS011;45288;51.136;16.928;2023-06-22T05:33:45;1286.20;;;999.90;;
59474;SDS011;45288;51.136;16.928;2023-06-22T05:36:11;1308.70;;;999.90;;
59474;SDS011;45288;51.136;16.928;2023-06-22T05:38:38;1306.72;;;999.90;;
59474;SDS011;45288;51.136;16.928;2023-06-22T05:41:04;1304.03;;;999.90;;
59474;SDS011;45288;51.136;16.928;2023-06-22T05:43:30;1307.47;;;999.90;;
59474;SDS011;45288;51.136;16.928;2023-06-22T05:45:56;1315.60;;;999.90;;
59474;SDS011;45288;51.136;16.928;2023-06-22T05:48:21;1311.60;;;999.90;;
59474;SDS011;45288;51.136;16.928;2023-06-22T05:50:47;1314.65;;;999.90;;
59474;SDS011;45288;51.136;16.928;2023-06-22T05:53:13;1317.57;;;999.90;;
59474;SDS011;45288;51.136;16.928;2023-06-22T05:55:38;1312.50;;;999.90;;
59474;SDS011;45288;51.136;16.928;2023-06-22T05:58:04;1314.63;;;999.90;;
59474;SDS011;45288;51.136;16.928;2023-06-22T06:00:30;1319.50;;;999.90;;
59474;SDS011;45288;51.136;16.928;2023-06-22T06:02:56;1308.50;;;999.90;;
59474;SDS011;45288;51.136;16.928;2023-06-22T06:05:22;1312.18;;;999.90;;
59474;SDS011;45288;51.136;16.928;2023-06-22T06:07:49;1317.82;;;999.90;;
59474;SDS011;45288;51.136;16.928;2023-06-22T06:10:14;1319.18;;;999.90;;
59474;SDS011;45288;51.136;16.928;2023-06-22T06:12:40;1319.50;;;999.90;;
59474;SDS011;45288;51.136;16.928;2023-06-22T06:15:06;1327.93;;;999.90;;
59474;SDS011;45288;51.136;16.928;2023-06-22T06:17:32;1335.18;;;999.90;;
59474;SDS011;45288;51.136;16.928;2023-06-22T06:19:58;1320.95;;;999.90;;
59474;SDS011;45288;51.136;16.928;2023-06-22T06:22:24;1318.30;;;999.90;;
59474;SDS011;45288;51.136;16.928;2023-06-22T06:24:50;1202.20;;;999.90;;
59474;SDS011;45288;51.136;16.928;2023-06-22T06:27:16;1126.57;;;999.90;;
59474;SDS011;45288;51.136;16.928;2023-06-22T06:29:43;1323.50;;;999.90;;
59474;SDS011;45288;51.136;16.928;2023-06-22T06:32:11;1326.05;;;999.90;;
59474;SDS011;45288;51.136;16.928;2023-06-22T06:34:37;1326.10;;;999.90;;
59474;SDS011;45288;51.136;16.928;2023-06-22T06:37:02;1323.77;;;999.90;;
59474;SDS011;45288;51.136;16.928;2023-06-22T06:39:28;1329.63;;;999.90;;
59474;SDS011;45288;51.136;16.928;2023-06-22T06:41:54;1326.63;;;999.90;;
59474;SDS011;45288;51.136;16.928;2023-06-22T06:44:20;1047.40;;;963.15;;
59474;SDS011;45288;51.136;16.928;2023-06-22T06:46:46;1328.88;;;999.90;;
59474;SDS011;45288;51.136;16.928;2023-06-22T06:49:12;1330.07;;;999.90;;
59474;SDS011;45288;51.136;16.928;2023-06-22T06:51:38;1325.82;;;999.90;;
59474;SDS011;45288;51.136;16.928;2023-06-22T06:54:04;1092.22;;;998.55;;
59474;SDS011;45288;51.136;16.928;2023-06-22T06:56:30;1335.00;;;999.90;;
59474;SDS011;45288;51.136;16.928;2023-06-22T06:58:55;1335.07;;;999.90;;
59474;SDS011;45288;51.136;16.928;2023-06-22T07:01:21;1333.00;;;999.90;;
59474;SDS011;45288;51.136;16.928;2023-06-22T07:03:47;1333.78;;;999.90;;
59474;SDS011;45288;51.136;16.928;2023-06-22T07:06:13;1330.03;;;999.90;;
59474;SDS011;45288;51.136;16.928;2023-06-22T07:08:39;1331.72;;;999.90;;
59474;SDS011;45288;51.136;16.928;2023-06-22T07:11:05;1333.43;;;999.90;;
59474;SDS011;45288;51.136;16.928;2023-06-22T07:13:31;1336.10;;;999.90;;
59474;SDS011;45288;51.136;16.928;2023-06-22T07:15:56;1335.10;;;999.90;;
59474;SDS011;45288;51.136;16.928;2023-06-22T07:18:23;1340.53;;;999.90;;
59474;SDS011;45288;51.136;16.928;2023-06-22T07:20:48;1342.57;;;999.90;;
59474;SDS011;45288;51.136;16.928;2023-06-22T07:23:14;1337.45;;;999.90;;
59474;SDS011;45288;51.136;16.928;2023-06-22T07:25:40;1339.53;;;999.90;;
59474;SDS011;45288;51.136;16.928;2023-06-22T07:28:06;1336.87;;;999.90;;
59474;SDS011;45288;51.136;16.928;2023-06-22T07:30:33;1337.75;;;999.90;;
59474;SDS011;45288;51.136;16.928;2023-06-22T07:32:59;1333.90;;;999.90;;
59474;SDS011;45288;51.136;16.928;2023-06-22T07:35:32;1341.03;;;999.90;;
59474;SDS011;45288;51.136;16.928;2023-06-22T07:37:58;1334.75;;;999.90;;
59474;SDS011;45288;51.136;16.928;2023-06-22T07:40:23;1341.87;;;999.90;;
59474;SDS011;45288;51.136;16.928;2023-06-22T07:42:49;1333.10;;;999.90;;
59474;SDS011;45288;51.136;16.928;2023-06-22T07:45:17;1344.35;;;999.90;;
59474;SDS011;45288;51.136;16.928;2023-06-22T07:47:42;1344.67;;;999.90;;
59474;SDS011;45288;51.136;16.928;2023-06-22T07:50:08;1347.38;;;999.90;;
59474;SDS011;45288;51.136;16.928;2023-06-22T07:52:34;1349.07;;;999.90;;
59474;SDS011;45288;51.136;16.928;2023-06-22T07:55:00;1349.65;;;999.90;;
59474;SDS011;45288;51.136;16.928;2023-06-22T07:57:25;1354.30;;;999.90;;
59474;SDS011;45288;51.136;16.928;2023-06-22T08:00:09;1348.87;;;999.90;;
59474;SDS011;45288;51.136;16.928;2023-06-22T08:02:40;1346.82;;;999.90;;
59474;SDS011;45288;51.136;16.928;2023-06-22T08:05:07;1348.10;;;999.90;;
59474;SDS011;45288;51.136;16.928;2023-06-22T08:07:34;1349.75;;;999.90;;
59474;SDS011;45288;51.136;16.928;2023-06-22T08:10:01;1348.13;;;999.90;;
59474;SDS011;45288;51.136;16.928;2023-06-22T08:12:26;1346.77;;;999.90;;
59474;SDS011;45288;51.136;16.928;2023-06-22T08:14:52;1342.10;;;999.90;;
59474;SDS011;45288;51.136;16.928;2023-06-22T08:17:18;1340.03;;;999.90;;
59474;SDS011;45288;51.136;16.928;2023-06-22T08:19:44;1339.60;;;999.90;;
59474;SDS011;45288;51.136;16.928;2023-06-22T08:22:09;1340.30;;;999.90;;
59474;SDS011;45288;51.136;16.928;2023-06-22T08:24:35;1343.55;;;999.90;;
59474;SDS011;45288;51.136;16.928;2023-06-22T08:27:01;1339.43;;;999.90;;
59474;SDS011;45288;51.136;16.928;2023-06-22T08:29:27;1340.50;;;999.90;;
59474;SDS011;45288;51.136;16.928;2023-06-22T08:31:52;1288.20;;;999.90;;
59474;SDS011;45288;51.136;16.928;2023-06-22T08:34:18;1306.55;;;999.90;;
59474;SDS011;45288;51.136;16.928;2023-06-22T08:36:47;1339.13;;;999.90;;
59474;SDS011;45288;51.136;16.928;2023-06-22T08:39:17;1343.90;;;999.90;;
59474;SDS011;45288;51.136;16.928;2023-06-22T08:41:43;1308.23;;;999.90;;
59474;SDS011;45288;51.136;16.928;2023-06-22T08:44:08;1262.28;;;999.90;;
59474;SDS011;45288;51.136;16.928;2023-06-22T08:46:34;1280.05;;;999.90;;
59474;SDS011;45288;51.136;16.928;2023-06-22T08:49:00;1245.03;;;999.90;;
59474;SDS011;45288;51.136;16.928;2023-06-22T08:51:26;1146.18;;;999.90;;
59474;SDS011;45288;51.136;16.928;2023-06-22T08:53:52;1050.10;;;964.17;;
59474;SDS011;45288;51.136;16.928;2023-06-22T08:56:17;976.83;;;895.63;;
59474;SDS011;45288;51.136;16.928;2023-06-22T08:58:44;971.28;;;890.08;;
59474;SDS011;45288;51.136;16.928;2023-06-22T09:01:09;953.33;;;873.77;;
59474;SDS011;45288;51.136;16.928;2023-06-22T09:03:35;966.23;;;885.63;;
59474;SDS011;45288;51.136;16.928;2023-06-22T09:06:03;994.58;;;911.95;;
59474;SDS011;45288;51.136;16.928;2023-06-22T09:08:29;1019.50;;;934.33;;
59474;SDS011;45288;51.136;16.928;2023-06-22T09:10:55;1004.83;;;920.88;;
59474;SDS011;45288;51.136;16.928;2023-06-22T09:13:20;1020.53;;;935.10;;
59474;SDS011;45288;51.136;16.928;2023-06-22T09:15:47;1029.97;;;944.00;;
59474;SDS011;45288;51.136;16.928;2023-06-22T09:18:13;1022.30;;;937.38;;
59474;SDS011;45288;51.136;16.928;2023-06-22T09:20:39;1034.20;;;947.33;;
59474;SDS011;45288;51.136;16.928;2023-06-22T09:23:05;1062.43;;;973.80;;
59474;SDS011;45288;51.136;16.928;2023-06-22T09:25:31;1098.10;;;999.90;;
59474;SDS011;45288;51.136;16.928;2023-06-22T09:27:57;1108.55;;;999.90;;
59474;SDS011;45288;51.136;16.928;2023-06-22T09:30:22;1119.03;;;999.90;;
59474;SDS011;45288;51.136;16.928;2023-06-22T09:32:48;1127.90;;;999.90;;
59474;SDS011;45288;51.136;16.928;2023-06-22T09:35:14;1116.50;;;999.90;;
59474;SDS011;45288;51.136;16.928;2023-06-22T09:37:40;1093.07;;;999.90;;
59474;SDS011;45288;51.136;16.928;2023-06-22T09:40:06;1057.35;;;969.22;;
59474;SDS011;45288;51.136;16.928;2023-06-22T09:42:35;1035.55;;;948.42;;
59474;SDS011;45288;51.136;16.928;2023-06-22T09:45:01;1043.90;;;956.50;;
59474;SDS011;45288;51.136;16.928;2023-06-22T09:47:27;1031.70;;;945.27;;
59474;SDS011;45288;51.136;16.928;2023-06-22T09:49:53;890.90;;;815.67;;
59474;SDS011;45288;51.136;16.928;2023-06-22T09:52:21;985.17;;;902.40;;
59474;SDS011;45288;51.136;16.928;2023-06-22T09:54:47;983.15;;;900.42;;
59474;SDS011;45288;51.136;16.928;2023-06-22T09:57:13;957.67;;;876.90;;
59474;SDS011;45288;51.136;16.928;2023-06-22T09:59:38;985.30;;;902.00;;
59474;SDS011;45288;51.136;16.928;2023-06-22T10:02:07;986.05;;;903.08;;
59474;SDS011;45288;51.136;16.928;2023-06-22T10:04:33;932.23;;;852.83;;
59474;SDS011;45288;51.136;16.928;2023-06-22T10:07:00;1005.85;;;920.67;;
59474;SDS011;45288;51.136;16.928;2023-06-22T10:09:25;1113.63;;;999.90;;
59474;SDS011;45288;51.136;16.928;2023-06-22T10:11:51;1347.63;;;999.90;;
59474;SDS011;45288;51.136;16.928;2023-06-22T10:14:16;1379.05;;;999.90;;
59474;SDS011;45288;51.136;16.928;2023-06-22T10:16:42;1361.65;;;999.90;;
59474;SDS011;45288;51.136;16.928;2023-06-22T10:19:08;1348.40;;;999.90;;
59474;SDS011;45288;51.136;16.928;2023-06-22T10:21:33;1332.50;;;999.90;;
59474;SDS011;45288;51.136;16.928;2023-06-22T10:24:00;1341.85;;;999.90;;
59474;SDS011;45288;51.136;16.928;2023-06-22T10:26:34;1355.90;;;999.90;;
59474;SDS011;45288;51.136;16.928;2023-06-22T10:29:00;1372.50;;;999.90;;
59474;SDS011;45288;51.136;16.928;2023-06-22T10:31:26;1382.47;;;999.90;;
59474;SDS011;45288;51.136;16.928;2023-06-22T10:33:53;1385.60;;;999.90;;
59474;SDS011;45288;51.136;16.928;2023-06-22T10:36:19;1374.05;;;999.90;;
59474;SDS011;45288;51.136;16.928;2023-06-22T10:38:44;1334.60;;;999.90;;
59474;SDS011;45288;51.136;16.928;2023-06-22T10:41:10;1301.07;;;999.90;;
59474;SDS011;45288;51.136;16.928;2023-06-22T10:43:36;1362.18;;;999.90;;
59474;SDS011;45288;51.136;16.928;2023-06-22T10:46:02;1372.38;;;999.90;;
59474;SDS011;45288;51.136;16.928;2023-06-22T10:48:27;1378.30;;;999.90;;
59474;SDS011;45288;51.136;16.928;2023-06-22T10:50:53;1342.77;;;999.90;;
59474;SDS011;45288;51.136;16.928;2023-06-22T10:53:19;1183.10;;;999.90;;
59474;SDS011;45288;51.136;16.928;2023-06-22T10:55:45;1390.90;;;999.90;;
59474;SDS011;45288;51.136;16.928;2023-06-22T10:58:11;1379.73;;;999.90;;
59474;SDS011;45288;51.136;16.928;2023-06-22T11:00:37;1366.00;;;999.90;;
59474;SDS011;45288;51.136;16.928;2023-06-22T11:03:02;1325.90;;;999.90;;
59474;SDS011;45288;51.136;16.928;2023-06-22T11:05:28;1393.28;;;999.90;;
59474;SDS011;45288;51.136;16.928;2023-06-22T11:07:54;1389.65;;;999.90;;
59474;SDS011;45288;51.136;16.928;2023-06-22T11:10:20;1391.30;;;999.90;;
59474;SDS011;45288;51.136;16.928;2023-06-22T11:12:46;1390.33;;;999.90;;
59474;SDS011;45288;51.136;16.928;2023-06-22T11:15:11;1357.28;;;999.90;;
59474;SDS011;45288;51.136;16.928;2023-06-22T11:17:37;1340.03;;;999.90;;
59474;SDS011;45288;51.136;16.928;2023-06-22T11:20:03;1195.20;;;999.90;;
59474;SDS011;45288;51.136;16.928;2023-06-22T11:22:37;1234.65;;;999.90;;
59474;SDS011;45288;51.136;16.928;2023-06-22T11:25:02;1216.75;;;999.90;;
59474;SDS011;45288;51.136;16.928;2023-06-22T11:27:29;1210.43;;;999.90;;
59474;SDS011;45288;51.136;16.928;2023-06-22T13:31:37;431.05;;;392.40;;
59474;SDS011;45288;51.136;16.928;2023-06-22T13:34:03;431.00;;;392.38;;
59474;SDS011;45288;51.136;16.928;2023-06-22T13:36:28;432.65;;;393.33;;
59474;SDS011;45288;51.136;16.928;2023-06-22T13:38:56;428.20;;;389.80;;
59474;SDS011;45288;51.136;16.928;2023-06-22T13:41:21;430.60;;;390.80;;
59474;SDS011;45288;51.136;16.928;2023-06-22T13:43:47;425.05;;;386.38;;
59474;SDS011;45288;51.136;16.928;2023-06-22T13:46:13;419.42;;;382.75;;
59474;SDS011;45288;51.136;16.928;2023-06-22T13:48:38;408.77;;;372.73;;
59474;SDS011;45288;51.136;16.928;2023-06-22T13:51:04;410.98;;;375.08;;
59474;SDS011;45288;51.136;16.928;2023-06-22T13:53:29;406.52;;;370.85;;
59474;SDS011;45288;51.136;16.928;2023-06-22T13:55:55;401.02;;;366.48;;
59474;SDS011;45288;51.136;16.928;2023-06-22T13:58:21;421.97;;;385.00;;
59474;SDS011;45288;51.136;16.928;2023-06-22T14:00:47;424.27;;;386.27;;
59474;SDS011;45288;51.136;16.928;2023-06-22T14:03:14;424.92;;;387.27;;
59474;SDS011;45288;51.136;16.928;2023-06-22T14:05:42;494.10;;;449.08;;
59474;SDS011;45288;51.136;16.928;2023-06-22T14:08:08;476.50;;;433.00;;
59474;SDS011;45288;51.136;16.928;2023-06-22T14:10:34;479.02;;;435.70;;
59474;SDS011;45288;51.136;16.928;2023-06-22T14:13:01;482.02;;;438.10;;
59474;SDS011;45288;51.136;16.928;2023-06-22T14:15:27;453.45;;;412.42;;
59474;SDS011;45288;51.136;16.928;2023-06-22T14:17:54;456.52;;;415.33;;
59474;SDS011;45288;51.136;16.928;2023-06-22T14:20:19;462.60;;;420.90;;
59474;SDS011;45288;51.136;16.928;2023-06-22T14:22:45;485.47;;;441.40;;
59474;SDS011;45288;51.136;16.928;2023-06-22T14:25:11;479.17;;;435.77;;
59474;SDS011;45288;51.136;16.928;2023-06-22T14:27:36;482.55;;;437.75;;
59474;SDS011;45288;51.136;16.928;2023-06-22T14:30:02;424.70;;;385.40;;
59474;SDS011;45288;51.136;16.928;2023-06-22T14:32:28;419.80;;;381.47;;
59474;SDS011;45288;51.136;16.928;2023-06-22T14:34:55;403.15;;;368.00;;
59474;SDS011;45288;51.136;16.928;2023-06-22T14:37:21;409.50;;;373.33;;
59474;SDS011;45288;51.136;16.928;2023-06-22T14:39:46;408.80;;;372.53;;
59474;SDS011;45288;51.136;16.928;2023-06-22T14:42:12;405.55;;;369.95;;
59474;SDS011;45288;51.136;16.928;2023-06-22T14:44:38;402.88;;;367.17;;
59474;SDS011;45288;51.136;16.928;2023-06-22T14:47:04;404.80;;;369.77;;
59474;SDS011;45288;51.136;16.928;2023-06-22T14:49:29;408.83;;;372.23;;
59474;SDS011;45288;51.136;16.928;2023-06-22T14:51:55;409.63;;;373.65;;
59474;SDS011;45288;51.136;16.928;2023-06-22T14:54:21;414.35;;;377.17;;
59474;SDS011;45288;51.136;16.928;2023-06-22T14:56:47;424.60;;;386.97;;
59474;SDS011;45288;51.136;16.928;2023-06-22T14:59:13;418.43;;;381.07;;
59474;SDS011;45288;51.136;16.928;2023-06-22T15:01:39;414.67;;;377.85;;
59474;SDS011;45288;51.136;16.928;2023-06-22T15:04:04;414.48;;;378.02;;
59474;SDS011;45288;51.136;16.928;2023-06-22T15:06:30;410.85;;;374.33;;
59474;SDS011;45288;51.136;16.928;2023-06-22T15:08:56;407.40;;;371.50;;
59474;SDS011;45288;51.136;16.928;2023-06-22T15:11:22;416.10;;;378.37;;
59474;SDS011;45288;51.136;16.928;2023-06-22T15:13:47;433.00;;;393.83;;
59474;SDS011;45288;51.136;16.928;2023-06-22T15:16:13;440.05;;;400.77;;
59474;SDS011;45288;51.136;16.928;2023-06-22T15:18:39;437.20;;;398.27;;
59474;SDS011;45288;51.136;16.928;2023-06-22T15:21:06;439.33;;;399.98;;
59474;SDS011;45288;51.136;16.928;2023-06-22T15:23:32;449.05;;;408.45;;
59474;SDS011;45288;51.136;16.928;2023-06-22T15:25:58;458.00;;;416.67;;
59474;SDS011;45288;51.136;16.928;2023-06-22T15:28:24;452.65;;;411.98;;
59474;SDS011;45288;51.136;16.928;2023-06-22T15:30:50;454.30;;;413.05;;
59474;SDS011;45288;51.136;16.928;2023-06-22T15:33:17;439.05;;;399.98;;
59474;SDS011;45288;51.136;16.928;2023-06-22T15:35:43;466.23;;;423.60;;
59474;SDS011;45288;51.136;16.928;2023-06-22T15:38:09;466.00;;;423.93;;
59474;SDS011;45288;51.136;16.928;2023-06-22T15:40:35;423.70;;;385.77;;
59474;SDS011;45288;51.136;16.928;2023-06-22T15:43:00;435.90;;;396.60;;